sensor_id;sensor_type;location;lat;lon;timestamp;pressure;altitude;pressure_sealevel;temperature;humidity
59170;BME280;52474;52.236;5.114;2023-04-27T00:00:10;102201.03;;;0.88;100.00
59170;BME280;52474;52.236;5.114;2023-04-27T00:02:37;102204.72;;;0.79;100.00
59170;BME280;52474;52.236;5.114;2023-04-27T00:05:03;102206.53;;;0.75;100.00
59170;BME280;52474;52.236;5.114;2023-04-27T00:07:30;102177.50;;;0.52;100.00
59170;BME280;52474;52.236;5.114;2023-04-27T00:09:56;102209.50;;;0.58;100.00
59170;BME280;52474;52.236;5.114;2023-04-27T00:12:21;102195.75;;;0.52;100.00
59170;BME280;52474;52.236;5.114;2023-04-27T00:14:47;102201.59;;;0.61;100.00
59170;BME280;52474;52.236;5.114;2023-04-27T00:17:13;102209.38;;;0.64;100.00
59170;BME280;52474;52.236;5.114;2023-04-27T00:19:39;102208.72;;;0.55;100.00
59170;BME280;52474;52.236;5.114;2023-04-27T00:22:07;102205.31;;;0.51;100.00
59170;BME280;52474;52.236;5.114;2023-04-27T00:24:33;102199.25;;;0.51;100.00
59170;BME280;52474;52.236;5.114;2023-04-27T00:26:59;102207.97;;;0.50;100.00
59170;BME280;52474;52.236;5.114;2023-04-27T00:29:24;102192.38;;;0.47;100.00
59170;BME280;52474;52.236;5.114;2023-04-27T00:31:51;102207.06;;;0.51;100.00
59170;BME280;52474;52.236;5.114;2023-04-27T00:34:17;102204.44;;;0.52;100.00
59170;BME280;52474;52.236;5.114;2023-04-27T00:36:46;102193.34;;;0.42;100.00
59170;BME280;52474;52.236;5.114;2023-04-27T00:39:12;102194.19;;;0.45;100.00
59170;BME280;52474;52.236;5.114;2023-04-27T00:41:38;102177.06;;;0.31;100.00
59170;BME280;52474;52.236;5.114;2023-04-27T00:44:04;102202.91;;;0.42;100.00
59170;BME280;52474;52.236;5.114;2023-04-27T00:46:30;102124.22;;;-0.16;100.00
59170;BME280;52474;52.236;5.114;2023-04-27T00:48:57;102197.03;;;0.32;100.00
59170;BME280;52474;52.236;5.114;2023-04-27T00:51:23;102200.44;;;0.34;100.00
59170;BME280;52474;52.236;5.114;2023-04-27T00:53:58;102204.81;;;0.34;100.00
59170;BME280;52474;52.236;5.114;2023-04-27T00:56:25;102188.38;;;0.30;100.00
59170;BME280;52474;52.236;5.114;2023-04-27T00:58:51;102156.72;;;0.08;100.00
59170;BME280;52474;52.236;5.114;2023-04-27T01:01:17;102185.28;;;0.13;100.00
59170;BME280;52474;52.236;5.114;2023-04-27T01:03:46;102190.66;;;0.05;100.00
59170;BME280;52474;52.236;5.114;2023-04-27T01:06:11;102188.16;;;-0.03;100.00
59170;BME280;52474;52.236;5.114;2023-04-27T01:08:37;102191.81;;;-0.11;100.00
59170;BME280;52474;52.236;5.114;2023-04-27T01:11:03;102195.34;;;-0.14;100.00
59170;BME280;52474;52.236;5.114;2023-04-27T01:13:30;102170.47;;;-0.30;100.00
59170;BME280;52474;52.236;5.114;2023-04-27T01:15:56;102195.19;;;-0.05;100.00
59170;BME280;52474;52.236;5.114;2023-04-27T01:18:21;102175.19;;;-0.04;100.00
59170;BME280;52474;52.236;5.114;2023-04-27T01:20:48;102167.56;;;-0.13;100.00
59170;BME280;52474;52.236;5.114;2023-04-27T01:23:14;102206.22;;;0.07;100.00
59170;BME280;52474;52.236;5.114;2023-04-27T01:25:41;102179.63;;;-0.09;100.00
59170;BME280;52474;52.236;5.114;2023-04-27T01:28:07;102194.22;;;-0.01;100.00
59170;BME280;52474;52.236;5.114;2023-04-27T01:30:33;102196.72;;;0.06;100.00
59170;BME280;52474;52.236;5.114;2023-04-27T01:32:58;102198.47;;;0.05;100.00
59170;BME280;52474;52.236;5.114;2023-04-27T01:35:24;102193.28;;;0.04;100.00
59170;BME280;52474;52.236;5.114;2023-04-27T01:37:50;102179.56;;;-0.05;100.00
59170;BME280;52474;52.236;5.114;2023-04-27T01:40:16;102184.78;;;-0.06;100.00
59170;BME280;52474;52.236;5.114;2023-04-27T01:42:42;102181.47;;;-0.14;100.00
59170;BME280;52474;52.236;5.114;2023-04-27T01:45:08;102177.19;;;-0.18;100.00
59170;BME280;52474;52.236;5.114;2023-04-27T01:47:34;102147.13;;;-0.35;100.00
59170;BME280;52474;52.236;5.114;2023-04-27T01:50:00;102179.06;;;-0.25;100.00
59170;BME280;52474;52.236;5.114;2023-04-27T01:52:26;102171.31;;;-0.30;100.00
59170;BME280;52474;52.236;5.114;2023-04-27T01:54:54;102170.53;;;-0.33;100.00
59170;BME280;52474;52.236;5.114;2023-04-27T01:57:21;102148.81;;;-0.32;100.00
59170;BME280;52474;52.236;5.114;2023-04-27T01:59:47;102172.75;;;-0.13;100.00
59170;BME280;52474;52.236;5.114;2023-04-27T02:02:13;102170.25;;;-0.18;100.00
59170;BME280;52474;52.236;5.114;2023-04-27T02:04:38;102158.16;;;-0.20;100.00
59170;BME280;52474;52.236;5.114;2023-04-27T02:07:05;102165.13;;;-0.23;100.00
59170;BME280;52474;52.236;5.114;2023-04-27T02:09:31;102175.69;;;-0.30;100.00
59170;BME280;52474;52.236;5.114;2023-04-27T02:11:56;102171.47;;;-0.36;100.00
59170;BME280;52474;52.236;5.114;2023-04-27T02:14:22;102143.06;;;-0.48;100.00
59170;BME280;52474;52.236;5.114;2023-04-27T02:16:48;102164.47;;;-0.34;100.00
59170;BME280;52474;52.236;5.114;2023-04-27T02:19:14;102093.38;;;-0.84;100.00
59170;BME280;52474;52.236;5.114;2023-04-27T02:21:40;102165.41;;;-0.36;100.00
59170;BME280;52474;52.236;5.114;2023-04-27T02:24:06;102165.47;;;-0.41;100.00
59170;BME280;52474;52.236;5.114;2023-04-27T02:26:32;102169.84;;;-0.41;100.00
59170;BME280;52474;52.236;5.114;2023-04-27T02:29:00;102164.78;;;-0.49;100.00
59170;BME280;52474;52.236;5.114;2023-04-27T02:31:27;102163.16;;;-0.56;100.00
59170;BME280;52474;52.236;5.114;2023-04-27T02:33:53;102157.91;;;-0.55;100.00
59170;BME280;52474;52.236;5.114;2023-04-27T02:36:23;102154.47;;;-0.55;100.00
59170;BME280;52474;52.236;5.114;2023-04-27T02:38:49;102133.09;;;-0.74;100.00
59170;BME280;52474;52.236;5.114;2023-04-27T02:41:14;102151.22;;;-0.68;100.00
59170;BME280;52474;52.236;5.114;2023-04-27T02:43:40;102152.09;;;-0.69;100.00
59170;BME280;52474;52.236;5.114;2023-04-27T02:46:06;102153.00;;;-0.72;100.00
59170;BME280;52474;52.236;5.114;2023-04-27T02:48:31;102151.38;;;-0.77;100.00
59170;BME280;52474;52.236;5.114;2023-04-27T02:50:57;102117.91;;;-0.96;100.00
59170;BME280;52474;52.236;5.114;2023-04-27T02:53:23;102146.94;;;-0.72;100.00
59170;BME280;52474;52.236;5.114;2023-04-27T02:55:49;102152.22;;;-0.77;100.00
59170;BME280;52474;52.236;5.114;2023-04-27T02:58:15;102148.13;;;-0.89;100.00
59170;BME280;52474;52.236;5.114;2023-04-27T03:00:42;102128.38;;;-1.00;100.00
59170;BME280;52474;52.236;5.114;2023-04-27T03:03:08;102157.56;;;-0.84;100.00
59170;BME280;52474;52.236;5.114;2023-04-27T03:05:34;102154.97;;;-0.84;100.00
59170;BME280;52474;52.236;5.114;2023-04-27T03:08:01;102147.94;;;-0.79;100.00
59170;BME280;52474;52.236;5.114;2023-04-27T03:10:26;102156.66;;;-0.82;100.00
59170;BME280;52474;52.236;5.114;2023-04-27T03:12:52;102169.72;;;-0.87;100.00
59170;BME280;52474;52.236;5.114;2023-04-27T03:15:20;102078.84;;;-1.47;100.00
59170;BME280;52474;52.236;5.114;2023-04-27T03:17:47;102149.38;;;-1.13;100.00
59170;BME280;52474;52.236;5.114;2023-04-27T03:20:12;102170.88;;;-1.03;100.00
59170;BME280;52474;52.236;5.114;2023-04-27T03:22:38;102174.38;;;-1.05;100.00
59170;BME280;52474;52.236;5.114;2023-04-27T03:25:04;102182.19;;;-1.07;100.00
59170;BME280;52474;52.236;5.114;2023-04-27T03:27:30;102177.06;;;-1.10;100.00
59170;BME280;52474;52.236;5.114;2023-04-27T03:29:56;102176.06;;;-1.03;100.00
59170;BME280;52474;52.236;5.114;2023-04-27T03:32:22;102163.03;;;-1.01;100.00
59170;BME280;52474;52.236;5.114;2023-04-27T03:34:48;102164.78;;;-1.02;100.00
59170;BME280;52474;52.236;5.114;2023-04-27T03:37:13;102139.91;;;-1.18;100.00
59170;BME280;52474;52.236;5.114;2023-04-27T03:39:39;102166.50;;;-1.01;100.00
59170;BME280;52474;52.236;5.114;2023-04-27T03:42:05;102163.94;;;-1.02;100.00
59170;BME280;52474;52.236;5.114;2023-04-27T03:44:31;102141.78;;;-1.26;100.00
59170;BME280;52474;52.236;5.114;2023-04-27T03:46:58;102166.72;;;-1.15;100.00
59170;BME280;52474;52.236;5.114;2023-04-27T03:49:24;102163.06;;;-1.03;100.00
59170;BME280;52474;52.236;5.114;2023-04-27T03:51:51;102169.91;;;-0.96;100.00
59170;BME280;52474;52.236;5.114;2023-04-27T03:54:17;102156.13;;;-1.04;100.00
59170;BME280;52474;52.236;5.114;2023-04-27T03:56:42;102173.31;;;-0.94;100.00
59170;BME280;52474;52.236;5.114;2023-04-27T03:59:12;102172.47;;;-0.94;100.00
59170;BME280;52474;52.236;5.114;2023-04-27T04:01:42;102166.38;;;-0.93;100.00
59170;BME280;52474;52.236;5.114;2023-04-27T04:04:08;102177.56;;;-0.88;100.00
59170;BME280;52474;52.236;5.114;2023-04-27T04:06:34;102174.97;;;-0.88;100.00
59170;BME280;52474;52.236;5.114;2023-04-27T04:09:00;102114.28;;;-1.43;100.00
59170;BME280;52474;52.236;5.114;2023-04-27T04:11:27;102170.09;;;-1.10;100.00
59170;BME280;52474;52.236;5.114;2023-04-27T04:13:56;102109.13;;;-1.44;100.00
59170;BME280;52474;52.236;5.114;2023-04-27T04:16:22;102178.56;;;-0.95;100.00
59170;BME280;52474;52.236;5.114;2023-04-27T04:18:47;102186.25;;;-0.89;100.00
59170;BME280;52474;52.236;5.114;2023-04-27T04:21:14;102184.41;;;-0.82;100.00
59170;BME280;52474;52.236;5.114;2023-04-27T04:23:41;102180.91;;;-0.81;100.00
59170;BME280;52474;52.236;5.114;2023-04-27T04:26:07;102167.84;;;-0.77;100.00
59170;BME280;52474;52.236;5.114;2023-04-27T04:28:34;102184.16;;;-0.67;100.00
59170;BME280;52474;52.236;5.114;2023-04-27T04:31:00;102160.03;;;-0.77;100.00
59170;BME280;52474;52.236;5.114;2023-04-27T04:33:27;102191.88;;;-0.61;100.00
59170;BME280;52474;52.236;5.114;2023-04-27T04:35:53;102185.81;;;-0.63;100.00
59170;BME280;52474;52.236;5.114;2023-04-27T04:38:19;102190.09;;;-0.59;100.00
59170;BME280;52474;52.236;5.114;2023-04-27T04:40:45;102171.03;;;-0.61;100.00
59170;BME280;52474;52.236;5.114;2023-04-27T04:43:11;102190.56;;;-0.37;100.00
59170;BME280;52474;52.236;5.114;2023-04-27T04:45:37;102207.31;;;-0.05;100.00
59170;BME280;52474;52.236;5.114;2023-04-27T04:48:03;102195.97;;;-0.03;100.00
59170;BME280;52474;52.236;5.114;2023-04-27T04:50:29;102178.88;;;-0.16;100.00
59170;BME280;52474;52.236;5.114;2023-04-27T04:52:55;102199.19;;;0.12;100.00
59170;BME280;52474;52.236;5.114;2023-04-27T04:55:21;102180.91;;;0.13;100.00
59170;BME280;52474;52.236;5.114;2023-04-27T04:57:46;102163.53;;;0.14;100.00
59170;BME280;52474;52.236;5.114;2023-04-27T05:00:13;102196.81;;;0.43;100.00
59170;BME280;52474;52.236;5.114;2023-04-27T05:02:39;102190.50;;;0.53;100.00
59170;BME280;52474;52.236;5.114;2023-04-27T05:05:06;102193.69;;;0.66;100.00
59170;BME280;52474;52.236;5.114;2023-04-27T05:07:32;102194.50;;;0.70;100.00
59170;BME280;52474;52.236;5.114;2023-04-27T05:09:58;102198.72;;;0.74;100.00
59170;BME280;52474;52.236;5.114;2023-04-27T05:12:23;102197.97;;;0.69;100.00
59170;BME280;52474;52.236;5.114;2023-04-27T05:14:50;102195.31;;;0.72;100.00
59170;BME280;52474;52.236;5.114;2023-04-27T05:17:16;102198.63;;;0.78;100.00
59170;BME280;52474;52.236;5.114;2023-04-27T05:19:41;102201.06;;;0.86;100.00
59170;BME280;52474;52.236;5.114;2023-04-27T05:22:07;102200.03;;;0.93;100.00
59170;BME280;52474;52.236;5.114;2023-04-27T05:24:33;102198.00;;;1.06;100.00
59170;BME280;52474;52.236;5.114;2023-04-27T05:26:59;102206.38;;;1.19;100.00
59170;BME280;52474;52.236;5.114;2023-04-27T05:29:24;102192.50;;;1.17;100.00
59170;BME280;52474;52.236;5.114;2023-04-27T05:31:51;102211.13;;;1.37;100.00
59170;BME280;52474;52.236;5.114;2023-04-27T05:34:18;102207.38;;;1.47;100.00
59170;BME280;52474;52.236;5.114;2023-04-27T05:36:44;102190.06;;;1.45;100.00
59170;BME280;52474;52.236;5.114;2023-04-27T05:39:13;102212.28;;;1.61;100.00
59170;BME280;52474;52.236;5.114;2023-04-27T05:41:39;102212.06;;;1.69;100.00
59170;BME280;52474;52.236;5.114;2023-04-27T05:44:05;102193.78;;;1.69;100.00
59170;BME280;52474;52.236;5.114;2023-04-27T05:46:31;102207.00;;;1.96;100.00
59170;BME280;52474;52.236;5.114;2023-04-27T05:48:58;102198.34;;;2.25;100.00
59170;BME280;52474;52.236;5.114;2023-04-27T05:51:24;102204.81;;;2.41;100.00
59170;BME280;52474;52.236;5.114;2023-04-27T05:53:50;102187.28;;;2.46;100.00
59170;BME280;52474;52.236;5.114;2023-04-27T05:56:18;102199.53;;;2.72;100.00
59170;BME280;52474;52.236;5.114;2023-04-27T05:58:44;102199.69;;;2.96;100.00
59170;BME280;52474;52.236;5.114;2023-04-27T06:01:10;102202.88;;;3.06;100.00
59170;BME280;52474;52.236;5.114;2023-04-27T06:03:36;102193.81;;;3.16;100.00
59170;BME280;52474;52.236;5.114;2023-04-27T06:06:02;102194.28;;;3.27;100.00
59170;BME280;52474;52.236;5.114;2023-04-27T06:08:28;102200.97;;;3.37;100.00
59170;BME280;52474;52.236;5.114;2023-04-27T06:10:55;102198.81;;;3.49;100.00
59170;BME280;52474;52.236;5.114;2023-04-27T06:13:21;102182.66;;;3.62;100.00
59170;BME280;52474;52.236;5.114;2023-04-27T06:15:47;102183.19;;;3.72;100.00
59170;BME280;52474;52.236;5.114;2023-04-27T06:18:13;102182.75;;;3.84;100.00
59170;BME280;52474;52.236;5.114;2023-04-27T06:20:39;102195.44;;;3.95;100.00
59170;BME280;52474;52.236;5.114;2023-04-27T06:23:05;102197.47;;;4.12;100.00
59170;BME280;52474;52.236;5.114;2023-04-27T06:25:31;102194.09;;;4.32;100.00
59170;BME280;52474;52.236;5.114;2023-04-27T06:27:57;102195.25;;;4.48;100.00
59170;BME280;52474;52.236;5.114;2023-04-27T06:30:23;102192.31;;;4.56;100.00
59170;BME280;52474;52.236;5.114;2023-04-27T06:32:50;102189.44;;;4.62;100.00
59170;BME280;52474;52.236;5.114;2023-04-27T06:35:17;102202.72;;;4.81;100.00
59170;BME280;52474;52.236;5.114;2023-04-27T06:37:43;102203.38;;;4.86;100.00
59170;BME280;52474;52.236;5.114;2023-04-27T06:40:09;102184.28;;;4.83;100.00
59170;BME280;52474;52.236;5.114;2023-04-27T06:42:36;102182.81;;;4.98;100.00
59170;BME280;52474;52.236;5.114;2023-04-27T06:45:02;102184.38;;;5.02;100.00
59170;BME280;52474;52.236;5.114;2023-04-27T06:47:29;102199.88;;;5.30;100.00
59170;BME280;52474;52.236;5.114;2023-04-27T06:49:55;102201.06;;;5.43;100.00
59170;BME280;52474;52.236;5.114;2023-04-27T06:52:21;102181.34;;;5.53;100.00
59170;BME280;52474;52.236;5.114;2023-04-27T06:54:47;102195.03;;;5.82;100.00
59170;BME280;52474;52.236;5.114;2023-04-27T06:57:12;102183.00;;;5.97;100.00
59170;BME280;52474;52.236;5.114;2023-04-27T06:59:39;102189.66;;;6.24;100.00
59170;BME280;52474;52.236;5.114;2023-04-27T07:02:05;102196.63;;;6.44;100.00
59170;BME280;52474;52.236;5.114;2023-04-27T07:04:31;102193.84;;;9.18;100.00
59170;BME280;52474;52.236;5.114;2023-04-27T07:06:57;102158.38;;;13.07;100.00
59170;BME280;52474;52.236;5.114;2023-04-27T07:09:23;102193.56;;;14.60;100.00
59170;BME280;52474;52.236;5.114;2023-04-27T07:11:49;102195.22;;;16.81;100.00
59170;BME280;52474;52.236;5.114;2023-04-27T07:14:15;102193.81;;;17.26;100.00
59170;BME280;52474;52.236;5.114;2023-04-27T07:16:40;102170.16;;;17.02;100.00
59170;BME280;52474;52.236;5.114;2023-04-27T07:19:09;102207.81;;;17.86;100.00
59170;BME280;52474;52.236;5.114;2023-04-27T07:21:34;102189.97;;;17.57;95.18
59170;BME280;52474;52.236;5.114;2023-04-27T07:24:00;102176.75;;;18.58;91.36
59170;BME280;52474;52.236;5.114;2023-04-27T07:26:26;102196.53;;;19.47;88.16
59170;BME280;52474;52.236;5.114;2023-04-27T07:28:52;102176.50;;;20.78;86.45
59170;BME280;52474;52.236;5.114;2023-04-27T07:31:18;102191.94;;;20.17;76.47
59170;BME280;52474;52.236;5.114;2023-04-27T07:33:43;102193.41;;;20.04;73.52
59170;BME280;52474;52.236;5.114;2023-04-27T07:36:10;102193.88;;;19.11;76.19
59170;BME280;52474;52.236;5.114;2023-04-27T07:38:36;102188.44;;;19.91;76.76
59170;BME280;52474;52.236;5.114;2023-04-27T07:41:02;102188.16;;;20.95;75.19
59170;BME280;52474;52.236;5.114;2023-04-27T07:43:32;102177.13;;;19.61;76.29
59170;BME280;52474;52.236;5.114;2023-04-27T07:45:57;102184.28;;;20.31;75.91
59170;BME280;52474;52.236;5.114;2023-04-27T07:48:23;102191.75;;;18.79;71.73
59170;BME280;52474;52.236;5.114;2023-04-27T07:50:50;102189.94;;;20.20;70.24
59170;BME280;52474;52.236;5.114;2023-04-27T07:53:16;102187.34;;;19.31;71.73
59170;BME280;52474;52.236;5.114;2023-04-27T07:55:41;102193.91;;;17.63;77.19
59170;BME280;52474;52.236;5.114;2023-04-27T07:58:10;102192.25;;;17.52;83.17
59170;BME280;52474;52.236;5.114;2023-04-27T08:00:36;102191.78;;;17.57;84.15
59170;BME280;52474;52.236;5.114;2023-04-27T08:03:02;102174.69;;;17.87;83.58
59170;BME280;52474;52.236;5.114;2023-04-27T08:05:28;102185.00;;;17.72;80.90
59170;BME280;52474;52.236;5.114;2023-04-27T08:07:54;102186.59;;;19.91;74.11
59170;BME280;52474;52.236;5.114;2023-04-27T08:10:20;102192.03;;;19.12;71.31
59170;BME280;52474;52.236;5.114;2023-04-27T08:12:46;102193.50;;;18.88;77.07
59170;BME280;52474;52.236;5.114;2023-04-27T08:15:12;102194.00;;;17.71;84.90
59170;BME280;52474;52.236;5.114;2023-04-27T08:17:37;102192.81;;;18.31;82.32
59170;BME280;52474;52.236;5.114;2023-04-27T08:20:07;102189.56;;;19.36;76.14
59170;BME280;52474;52.236;5.114;2023-04-27T08:22:37;102160.03;;;18.64;74.23
59170;BME280;52474;52.236;5.114;2023-04-27T08:25:03;102174.78;;;19.32;77.25
59170;BME280;52474;52.236;5.114;2023-04-27T08:27:29;102194.69;;;17.93;75.31
59170;BME280;52474;52.236;5.114;2023-04-27T08:29:55;102179.81;;;18.08;77.06
59170;BME280;52474;52.236;5.114;2023-04-27T08:32:21;102171.38;;;18.58;71.46
59170;BME280;52474;52.236;5.114;2023-04-27T08:34:46;102168.00;;;18.74;79.78
59170;BME280;52474;52.236;5.114;2023-04-27T08:37:12;102180.13;;;17.48;85.40
59170;BME280;52474;52.236;5.114;2023-04-27T08:39:38;102168.63;;;19.22;73.21
59170;BME280;52474;52.236;5.114;2023-04-27T08:42:11;102154.09;;;17.21;77.78
59170;BME280;52474;52.236;5.114;2023-04-27T08:44:38;102180.63;;;17.71;85.33
59170;BME280;52474;52.236;5.114;2023-04-27T08:47:04;102188.13;;;17.68;83.38
59170;BME280;52474;52.236;5.114;2023-04-27T08:49:30;102166.72;;;18.33;79.55
59170;BME280;52474;52.236;5.114;2023-04-27T08:51:56;102177.38;;;19.94;71.83
59170;BME280;52474;52.236;5.114;2023-04-27T08:54:21;102176.38;;;21.13;68.36
59170;BME280;52474;52.236;5.114;2023-04-27T08:56:47;102183.91;;;19.21;72.54
59170;BME280;52474;52.236;5.114;2023-04-27T08:59:14;102177.75;;;19.29;73.83
59170;BME280;52474;52.236;5.114;2023-04-27T09:01:44;102169.06;;;20.13;69.86
59170;BME280;52474;52.236;5.114;2023-04-27T09:04:11;102169.31;;;20.45;67.01
59170;BME280;52474;52.236;5.114;2023-04-27T09:06:36;102184.63;;;21.28;59.12
59170;BME280;52474;52.236;5.114;2023-04-27T09:09:02;102181.81;;;22.01;52.95
59170;BME280;52474;52.236;5.114;2023-04-27T09:11:34;102178.13;;;23.19;48.92
59170;BME280;52474;52.236;5.114;2023-04-27T09:14:02;102157.97;;;24.04;48.95
59170;BME280;52474;52.236;5.114;2023-04-27T09:16:31;102172.28;;;23.30;49.43
59170;BME280;52474;52.236;5.114;2023-04-27T09:18:57;102172.94;;;22.86;49.61
59170;BME280;52474;52.236;5.114;2023-04-27T09:21:25;102172.81;;;22.25;51.87
59170;BME280;52474;52.236;5.114;2023-04-27T09:23:52;102167.53;;;23.32;46.15
59170;BME280;52474;52.236;5.114;2023-04-27T09:26:22;102165.59;;;21.37;50.37
59170;BME280;52474;52.236;5.114;2023-04-27T09:28:52;102163.19;;;21.67;47.39
59170;BME280;52474;52.236;5.114;2023-04-27T09:31:18;102152.69;;;22.59;47.52
59170;BME280;52474;52.236;5.114;2023-04-27T09:33:45;102162.03;;;23.03;41.04
59170;BME280;52474;52.236;5.114;2023-04-27T09:36:19;102171.25;;;22.31;37.49
59170;BME280;52474;52.236;5.114;2023-04-27T09:38:46;102162.72;;;22.73;38.71
59170;BME280;52474;52.236;5.114;2023-04-27T09:41:12;102163.88;;;23.25;39.20
59170;BME280;52474;52.236;5.114;2023-04-27T09:43:38;102135.59;;;20.58;44.03
59170;BME280;52474;52.236;5.114;2023-04-27T09:46:05;102154.94;;;22.16;46.10
59170;BME280;52474;52.236;5.114;2023-04-27T09:48:31;102094.53;;;23.32;44.02
59170;BME280;52474;52.236;5.114;2023-04-27T09:50:57;102137.69;;;22.57;41.60
59170;BME280;52474;52.236;5.114;2023-04-27T09:53:40;102133.03;;;23.34;43.87
59170;BME280;52474;52.236;5.114;2023-04-27T10:01:51;102153.84;;;21.94;40.05
59170;BME280;52474;52.236;5.114;2023-04-27T10:04:54;102145.34;;;23.37;42.37
59170;BME280;52474;52.236;5.114;2023-04-27T10:07:25;102138.38;;;23.05;38.33
59170;BME280;52474;52.236;5.114;2023-04-27T10:09:52;102145.69;;;21.71;38.45
59170;BME280;52474;52.236;5.114;2023-04-27T10:12:36;102154.31;;;21.98;38.85
59170;BME280;52474;52.236;5.114;2023-04-27T10:15:12;102149.59;;;21.28;41.85
59170;BME280;52474;52.236;5.114;2023-04-27T10:17:46;102149.59;;;21.19;42.32
59170;BME280;52474;52.236;5.114;2023-04-27T10:20:12;102147.25;;;21.25;40.08
59170;BME280;52474;52.236;5.114;2023-04-27T10:25:16;102139.47;;;20.56;42.48
59170;BME280;52474;52.236;5.114;2023-04-27T10:27:42;102140.13;;;20.07;43.64
59170;BME280;52474;52.236;5.114;2023-04-27T10:30:12;102142.19;;;19.61;42.25
59170;BME280;52474;52.236;5.114;2023-04-27T10:32:58;102135.56;;;19.73;45.81
59170;BME280;52474;52.236;5.114;2023-04-27T10:35:35;102141.00;;;20.91;41.89
59170;BME280;52474;52.236;5.114;2023-04-27T10:38:14;102132.91;;;21.32;46.28
59170;BME280;52474;52.236;5.114;2023-04-27T10:40:42;102131.22;;;22.03;41.05
59170;BME280;52474;52.236;5.114;2023-04-27T10:43:12;102138.81;;;21.28;41.08
59170;BME280;52474;52.236;5.114;2023-04-27T10:45:39;102135.78;;;20.98;38.80
59170;BME280;52474;52.236;5.114;2023-04-27T10:48:06;102141.81;;;20.67;39.40
59170;BME280;52474;52.236;5.114;2023-04-27T10:50:33;102140.44;;;21.70;40.89
59170;BME280;52474;52.236;5.114;2023-04-27T10:53:00;102128.69;;;22.41;38.91
59170;BME280;52474;52.236;5.114;2023-04-27T10:55:27;102144.13;;;21.77;35.56
59170;BME280;52474;52.236;5.114;2023-04-27T10:57:54;102136.00;;;21.85;38.76
59170;BME280;52474;52.236;5.114;2023-04-27T11:00:31;102127.09;;;23.01;34.86
59170;BME280;52474;52.236;5.114;2023-04-27T11:03:21;102130.59;;;22.87;37.57
59170;BME280;52474;52.236;5.114;2023-04-27T11:06:01;102136.41;;;21.65;38.50
59170;BME280;52474;52.236;5.114;2023-04-27T11:08:29;102122.97;;;21.41;36.82
59170;BME280;52474;52.236;5.114;2023-04-27T11:11:01;102116.44;;;21.02;42.79
59170;BME280;52474;52.236;5.114;2023-04-27T11:13:27;102102.72;;;22.40;38.89
59170;BME280;52474;52.236;5.114;2023-04-27T11:15:54;102098.34;;;22.62;37.61
59170;BME280;52474;52.236;5.114;2023-04-27T11:18:26;102096.97;;;23.27;36.72
59170;BME280;52474;52.236;5.114;2023-04-27T11:21:05;102093.13;;;24.47;37.87
59170;BME280;52474;52.236;5.114;2023-04-27T11:23:34;102090.09;;;25.28;36.09
59170;BME280;52474;52.236;5.114;2023-04-27T11:26:16;102092.56;;;25.58;34.26
59170;BME280;52474;52.236;5.114;2023-04-27T11:28:44;102088.84;;;24.38;38.54
59170;BME280;52474;52.236;5.114;2023-04-27T11:31:21;102097.75;;;25.53;35.89
59170;BME280;52474;52.236;5.114;2023-04-27T11:33:48;102091.84;;;25.14;35.42
59170;BME280;52474;52.236;5.114;2023-04-27T11:36:18;102083.22;;;25.04;35.99
59170;BME280;52474;52.236;5.114;2023-04-27T11:38:44;102086.94;;;24.75;35.65
59170;BME280;52474;52.236;5.114;2023-04-27T11:41:13;102083.75;;;24.93;32.82
59170;BME280;52474;52.236;5.114;2023-04-27T11:43:41;102072.72;;;25.92;33.68
59170;BME280;52474;52.236;5.114;2023-04-27T11:46:10;102075.38;;;24.88;35.60
59170;BME280;52474;52.236;5.114;2023-04-27T11:48:37;102083.97;;;25.47;35.19
59170;BME280;52474;52.236;5.114;2023-04-27T11:51:04;102060.25;;;25.63;36.98
59170;BME280;52474;52.236;5.114;2023-04-27T11:53:35;102076.56;;;23.84;33.31
59170;BME280;52474;52.236;5.114;2023-04-27T11:56:05;102068.34;;;23.92;35.29
59170;BME280;52474;52.236;5.114;2023-04-27T11:58:36;102069.88;;;24.38;36.01
59170;BME280;52474;52.236;5.114;2023-04-27T12:01:03;102067.53;;;24.13;34.85
59170;BME280;52474;52.236;5.114;2023-04-27T12:03:29;102070.16;;;24.07;34.29
59170;BME280;52474;52.236;5.114;2023-04-27T12:05:56;102073.16;;;23.08;37.63
59170;BME280;52474;52.236;5.114;2023-04-27T12:08:22;102069.91;;;23.72;36.93
59170;BME280;52474;52.236;5.114;2023-04-27T12:10:48;102067.66;;;24.27;37.70
59170;BME280;52474;52.236;5.114;2023-04-27T12:13:14;102078.84;;;22.98;35.46
59170;BME280;52474;52.236;5.114;2023-04-27T12:15:40;102064.06;;;23.53;36.72
59170;BME280;52474;52.236;5.114;2023-04-27T12:18:07;102060.44;;;23.17;36.88
59170;BME280;52474;52.236;5.114;2023-04-27T12:20:34;102070.66;;;23.06;36.31
59170;BME280;52474;52.236;5.114;2023-04-27T12:22:59;102063.16;;;22.24;39.04
59170;BME280;52474;52.236;5.114;2023-04-27T12:25:25;102058.88;;;21.76;41.39
59170;BME280;52474;52.236;5.114;2023-04-27T12:27:51;102048.66;;;21.55;43.70
59170;BME280;52474;52.236;5.114;2023-04-27T12:30:17;102050.09;;;21.18;43.10
59170;BME280;52474;52.236;5.114;2023-04-27T12:32:43;102041.06;;;21.58;45.08
59170;BME280;52474;52.236;5.114;2023-04-27T12:35:09;102049.94;;;20.46;42.20
59170;BME280;52474;52.236;5.114;2023-04-27T12:37:35;102043.06;;;20.84;41.11
59170;BME280;52474;52.236;5.114;2023-04-27T12:40:02;102040.84;;;21.76;40.85
59170;BME280;52474;52.236;5.114;2023-04-27T12:42:31;102023.69;;;22.00;41.72
59170;BME280;52474;52.236;5.114;2023-04-27T12:44:57;102040.50;;;22.34;40.32
59170;BME280;52474;52.236;5.114;2023-04-27T12:47:23;102047.53;;;22.12;38.86
59170;BME280;52474;52.236;5.114;2023-04-27T12:49:49;102038.31;;;21.75;41.20
59170;BME280;52474;52.236;5.114;2023-04-27T12:52:15;102042.88;;;21.02;44.04
59170;BME280;52474;52.236;5.114;2023-04-27T12:54:41;102045.72;;;18.72;41.52